Medicine Hat Airport, Alberta

Past 24 Hour Conditions

Date / Time
(MDT)
Conditions Temp
(°F)
Humidity
(%)
Dew Point
(°F)
Wind
(mph)
Pressure
(inches)
Visibility
(miles)
28 May 2015
20:00 Mainly Sunny 56 49 37 N 10 30.3 30
19:00 Partly Cloudy 58 44 36 N 13 30.3 30
18:00 Partly Cloudy 57 52 40 N 11 gust 18 30.3 30
17:00 Partly Cloudy 54 62 42 NNE 12 gust 19 30.3 30
16:00 Cloudy 51 76 44 N 16 30.3 25
15:00 Cloudy 50 85 45 N 14 gust 22 30.3 30
14:00 Light Rainshower 50 88 47 N 19 30.3 10
13:00 Light Rainshower 50 92 48 N 17 gust 24 30.2 10
12:00 Light Rainshower 50 95 49 N 17 gust 27 30.2 8
11:00 Mostly Cloudy 55 82 50 N 22 gust 29 30.1 50
10:00 Mostly Cloudy 60 76 53 N 13 30.1 15
9:00 Mostly Cloudy 57 81 51 N 9 30.1 20
8:00 Mostly Cloudy 54 91 51 W 6 30.0 15
7:00 Mostly Cloudy 51 92 49 SW 4 30.0 12
6:00 Sunny 47 97 47 SSW 2 30.0 7
5:00 Mainly Clear 48 97 47 calm 30.0 8
4:00 Clear 46   97 46 SSW 3 30.0 9
3:00 Clear 50 93 48 calm 29.9 10
2:00 Mainly Clear 49 93 47 E 3 29.9 10
1:00 Clear 53 85 48 S 5 29.9 10
00:00 Mainly Clear 55 84 50 NNE 6 29.9 10
27 May 2015
23:00 Mostly Cloudy 57 78 51 NE 6 29.9 10
22:00 Partly Cloudy 59 73 51 NNE 10 29.9 10
21:00 Mostly Cloudy 61 71 51 N 12 29.9 30
20:00 Mostly Cloudy 64   76 56 NNE 6 29.9 30
N/A Not available
↑ Highest temperature
↓ Lowest temperature

If you require additional historical weather information, please visit Climate Data Online.

What we are doing

Date modified: